This is the latest recevied weather packets stored in our database for station/object KU9TRY. If no packets are shown the sender has not sent any weather packets the latest 10 day(s).
| Time | Temp. | Humidity | Pressure | Rain* | Wind** | Luminosity | Snow |
|---|---|---|---|---|---|---|---|
| 1777830044 | 15.56° C | 44% | 1021.1 hPa | 0 mm | - | 77 W/m² | - |
| 1777829739 | 16.11° C | 41% | 1021.4 hPa | 0 mm | - | 996 W/m² | - |
| 1777829435 | 15.56° C | 41% | 1021.3 hPa | 0 mm | - | 998 W/m² | - |
| 1777829133 | 15.56° C | 41% | 1021.4 hPa | 0 mm | - | 1001 W/m² | - |
| 1777828830 | 15.56° C | 41% | 1021.6 hPa | 0 mm | - | 1000 W/m² | - |
| 1777828526 | 15° C | 44% | 1021.5 hPa | 0 mm | - | 1000 W/m² | - |
| 1777828224 | 16.11° C | 40% | 1021.6 hPa | 0 mm | - | 999 W/m² | - |
| 1777827920 | 15.56° C | 42% | 1021.5 hPa | 0 mm | - | 996 W/m² | - |
| 1777827618 | 15° C | 44% | 1021.7 hPa | 0 mm | - | 995 W/m² | - |
| 1777827315 | 15.56° C | 41% | 1021.8 hPa | 0 mm | - | 989 W/m² | - |
| 1777827011 | 15.56° C | 44% | 1021.8 hPa | 0 mm | - | 989 W/m² | - |
| 1777826708 | 15.56° C | 46% | 1021.9 hPa | 0 mm | - | 986 W/m² | - |
| 1777826405 | 15° C | 43% | 1022.2 hPa | 0 mm | - | 980 W/m² | - |
| 1777826102 | 15° C | 43% | 1022.2 hPa | 0 mm | - | 977 W/m² | - |
| 1777825799 | 14.44° C | 42% | 1022.2 hPa | 0 mm | - | 973 W/m² | - |
| 1777825496 | 15° C | 40% | 1022.2 hPa | 0 mm | - | 965 W/m² | - |
| 1777825193 | 14.44° C | 45% | 1022.3 hPa | 0 mm | - | 956 W/m² | - |
| 1777824890 | 15° C | 44% | 1022.2 hPa | 0 mm | - | 947 W/m² | - |
| 1777824586 | 14.44° C | 43% | 1022.5 hPa | 0 mm | - | 938 W/m² | - |
| 1777824284 | 14.44° C | 46% | 1022.4 hPa | 0 mm | - | 950 W/m² | - |
| 1777823978 | 14.44° C | 49% | 1022.4 hPa | 0 mm | - | 936 W/m² | - |
| 1777823676 | 13.89° C | 51% | 1022.5 hPa | 0 mm | - | 928 W/m² | - |
| 1777823373 | 13.89° C | 51% | 1022.6 hPa | 0 mm | - | 989 W/m² | - |
| 1777823071 | 13.33° C | 55% | 1022.5 hPa | 0 mm | - | 1009 W/m² | - |
| 1777822768 | 13.33° C | 58% | 1022.8 hPa | 0 mm | - | 230 W/m² | - |
* Rain latest hour (hover to see other rain measurements)
** Current wind speed in m/s (hover to see current wind gust speed)